Terminal Aerodrome Forecast
Issued by NWS

Home | Current Version | Previous Version | Text Only | Print | Product List | Glossary On
Versions: 1 2 3 4 5 6 7 8 9 10 11 12 13 14 15 16
783
FTUS44 KCRP 031622 AAA
TAFALI
TAF AMD
KALI 031622Z 0316/0412 04010KT 6SM -RA BR BKN006 OVC015
      TEMPO 0318/0320 4SM SHRA BR BKN004 OVC015
     FM032000 04007KT 6SM SHRA BR BKN010 OVC100
      TEMPO 0321/0401 VRB15G25KT 3SM +TSRA BR OVC010CB
     FM040200 05007KT P6SM -TSRA BKN005CB OVC013=

USA.gov is the U.S. government's official web portal to all federal, state and local government web resources and services.